createdAt,value
2019-02-15T00:00:39.549Z,995.34
2019-02-15T00:01:39.456Z,995.33
2019-02-15T00:02:39.380Z,995.35
2019-02-15T00:03:39.294Z,995.34
2019-02-15T00:05:00.326Z,995.34
2019-02-15T00:05:39.120Z,995.34
2019-02-15T00:06:39.037Z,995.37
2019-02-15T00:07:38.951Z,995.35
2019-02-15T00:08:38.865Z,995.33
2019-02-15T00:09:38.788Z,995.31
2019-02-15T00:10:59.668Z,995.31
2019-02-15T00:11:38.612Z,995.29
2019-02-15T00:12:38.527Z,995.31
2019-02-15T00:13:38.440Z,995.29
2019-02-15T00:14:38.353Z,995.25
2019-02-15T00:15:38.281Z,995.25
2019-02-15T00:16:59.163Z,995.30
2019-02-15T00:17:38.101Z,995.26
2019-02-15T00:18:38.033Z,995.32
2019-02-15T00:19:37.934Z,995.33
2019-02-15T00:20:37.843Z,995.30
2019-02-15T00:21:37.763Z,995.25
2019-02-15T00:22:58.665Z,995.26
2019-02-15T00:23:37.594Z,995.22
2019-02-15T00:24:37.505Z,995.25
2019-02-15T00:25:37.418Z,995.19
2019-02-15T00:26:37.333Z,995.21
2019-02-15T00:27:37.249Z,995.19
2019-02-15T00:28:58.170Z,995.21
2019-02-15T00:29:37.076Z,995.25
2019-02-15T00:30:36.993Z,995.22
2019-02-15T00:31:36.916Z,995.22
2019-02-15T00:32:36.822Z,995.25
2019-02-15T00:33:36.736Z,995.21
2019-02-15T00:34:57.635Z,995.23
2019-02-15T00:35:36.584Z,995.17
2019-02-15T00:36:36.481Z,995.15
2019-02-15T00:37:36.395Z,995.20
2019-02-15T00:38:36.316Z,995.18
2019-02-15T00:39:36.223Z,995.24
2019-02-15T00:40:57.118Z,995.23
2019-02-15T00:41:36.068Z,995.19
2019-02-15T00:42:35.972Z,995.17
2019-02-15T00:43:35.886Z,995.16
2019-02-15T00:44:35.803Z,995.19
2019-02-15T00:45:35.723Z,995.16
2019-02-15T00:46:56.619Z,995.19
2019-02-15T00:47:35.543Z,995.20
2019-02-15T00:48:35.476Z,995.22
2019-02-15T00:49:35.377Z,995.21
2019-02-15T00:50:35.301Z,995.25
2019-02-15T00:51:35.201Z,995.24
2019-02-15T00:52:56.097Z,995.27
2019-02-15T00:53:35.036Z,995.24
2019-02-15T00:54:34.947Z,995.26
2019-02-15T00:55:34.861Z,995.29
2019-02-15T00:56:34.773Z,995.30
2019-02-15T00:57:34.689Z,995.28
2019-02-15T00:58:55.597Z,995.28
2019-02-15T00:59:34.520Z,995.29
2019-02-15T01:00:34.439Z,995.29
2019-02-15T01:01:34.361Z,995.32
2019-02-15T01:02:34.266Z,995.29
2019-02-15T01:03:34.179Z,995.28
2019-02-15T01:04:55.089Z,995.28
2019-02-15T01:05:34.010Z,995.28
2019-02-15T01:06:33.929Z,995.29
2019-02-15T01:07:33.841Z,995.28
2019-02-15T01:08:33.752Z,995.25
2019-02-15T01:09:33.667Z,995.27
2019-02-15T01:10:54.570Z,995.30
2019-02-15T01:11:33.500Z,995.27
2019-02-15T01:12:33.411Z,995.27
2019-02-15T01:13:33.327Z,995.29
2019-02-15T01:14:33.247Z,995.27
2019-02-15T01:15:33.177Z,995.26
2019-02-15T01:16:54.048Z,995.28
2019-02-15T01:17:32.987Z,995.28
2019-02-15T01:18:32.912Z,995.27
2019-02-15T01:19:32.816Z,995.26
2019-02-15T01:20:32.731Z,995.28
2019-02-15T01:21:32.648Z,995.27
2019-02-15T01:22:53.539Z,995.26
2019-02-15T01:23:32.474Z,995.28
2019-02-15T01:24:32.393Z,995.28
2019-02-15T01:25:32.304Z,995.30
2019-02-15T01:26:32.216Z,995.27
2019-02-15T01:27:32.133Z,995.30
2019-02-15T01:28:53.037Z,995.29
2019-02-15T01:29:31.963Z,995.28
2019-02-15T01:30:31.893Z,995.24
2019-02-15T01:31:31.791Z,995.22
2019-02-15T01:32:31.722Z,995.22
2019-02-15T01:33:31.619Z,995.22
2019-02-15T01:34:52.511Z,995.21
2019-02-15T01:35:31.447Z,995.17
2019-02-15T01:36:31.364Z,995.20
2019-02-15T01:37:31.277Z,995.18
2019-02-15T01:38:31.195Z,995.16
2019-02-15T01:39:31.109Z,995.13
2019-02-15T01:40:52.011Z,995.11
2019-02-15T01:41:30.937Z,995.09
2019-02-15T01:42:30.857Z,995.09
2019-02-15T01:43:30.770Z,995.12
2019-02-15T01:44:30.681Z,995.09
2019-02-15T01:45:30.596Z,995.06
2019-02-15T01:46:51.492Z,995.04
2019-02-15T01:47:30.427Z,995.04
2019-02-15T01:48:30.339Z,995.04
2019-02-15T01:49:30.253Z,995.03
2019-02-15T01:50:30.166Z,995.01
2019-02-15T01:51:30.080Z,995.05
2019-02-15T01:52:50.978Z,995.02
2019-02-15T01:53:29.913Z,995.01
2019-02-15T01:54:29.825Z,995.01
2019-02-15T01:55:29.738Z,995.01
2019-02-15T01:56:29.655Z,995.00
2019-02-15T01:57:29.569Z,994.99
2019-02-15T01:58:50.465Z,995.01
2019-02-15T01:59:29.398Z,994.98
2019-02-15T02:00:29.314Z,994.96
2019-02-15T02:01:29.224Z,995.00
2019-02-15T02:02:29.147Z,994.97
2019-02-15T02:03:29.052Z,994.96
2019-02-15T02:04:49.965Z,994.96
2019-02-15T02:05:28.885Z,994.95
2019-02-15T02:06:28.799Z,994.95
2019-02-15T02:07:28.747Z,994.92
2019-02-15T02:08:28.632Z,994.93
2019-02-15T02:09:28.562Z,994.88
2019-02-15T02:10:49.441Z,994.92
2019-02-15T02:11:28.372Z,994.93
2019-02-15T02:12:28.306Z,994.92
2019-02-15T02:13:28.204Z,994.92
2019-02-15T02:14:28.116Z,994.91
2019-02-15T02:15:28.035Z,994.90
2019-02-15T02:16:48.923Z,994.89
2019-02-15T02:17:27.860Z,994.90
2019-02-15T02:18:27.777Z,994.87
2019-02-15T02:19:27.687Z,994.87
2019-02-15T02:20:27.610Z,994.89
2019-02-15T02:21:27.517Z,994.90
2019-02-15T02:22:48.410Z,994.87
2019-02-15T02:23:27.347Z,994.81
2019-02-15T02:24:27.257Z,994.85
2019-02-15T02:25:27.175Z,994.86
2019-02-15T02:26:27.095Z,994.84
2019-02-15T02:27:27.003Z,994.85
2019-02-15T02:28:47.901Z,994.86
2019-02-15T02:29:26.833Z,994.89
2019-02-15T02:30:26.745Z,994.88
2019-02-15T02:31:26.656Z,994.83
2019-02-15T02:32:26.582Z,994.83
2019-02-15T02:33:26.498Z,994.82
2019-02-15T02:34:47.379Z,994.82
2019-02-15T02:35:26.339Z,994.79
2019-02-15T02:36:26.233Z,994.78
2019-02-15T02:37:26.143Z,994.80
2019-02-15T02:38:26.067Z,994.76
2019-02-15T02:39:26.003Z,994.78
2019-02-15T02:40:46.869Z,994.76
2019-02-15T02:41:25.807Z,994.76
2019-02-15T02:42:25.722Z,994.78
2019-02-15T02:43:25.650Z,994.77
2019-02-15T02:44:25.551Z,994.81
2019-02-15T02:45:25.467Z,994.80
2019-02-15T02:46:46.354Z,994.80
2019-02-15T02:47:25.291Z,994.80
2019-02-15T02:48:25.217Z,994.80
2019-02-15T02:49:25.115Z,994.78
2019-02-15T02:50:25.037Z,994.77
2019-02-15T02:51:24.947Z,994.78
2019-02-15T02:52:45.840Z,994.83
2019-02-15T02:53:24.777Z,994.84
2019-02-15T02:54:24.724Z,994.86
2019-02-15T02:55:24.603Z,994.85
2019-02-15T02:56:24.521Z,994.84
2019-02-15T02:57:24.432Z,994.86
2019-02-15T02:58:45.330Z,994.88
2019-02-15T02:59:24.260Z,994.88
2019-02-15T03:00:33.186Z,994.92
2019-02-15T03:01:24.089Z,994.92
2019-02-15T03:02:24.006Z,994.91
2019-02-15T03:03:23.926Z,994.90
2019-02-15T03:04:44.809Z,994.92
2019-02-15T03:05:23.756Z,994.91
2019-02-15T03:06:23.662Z,994.89
2019-02-15T03:07:23.579Z,994.92
2019-02-15T03:08:23.488Z,994.90
2019-02-15T03:09:23.413Z,994.90
2019-02-15T03:10:44.296Z,994.89
2019-02-15T03:11:23.241Z,994.90
2019-02-15T03:12:23.146Z,994.88
2019-02-15T03:13:23.063Z,994.90
2019-02-15T03:14:22.981Z,994.83
2019-02-15T03:15:22.888Z,994.83
2019-02-15T03:16:43.837Z,994.80
2019-02-15T03:17:22.720Z,994.79
2019-02-15T03:18:22.636Z,994.80
2019-02-15T03:19:22.544Z,994.78
2019-02-15T03:20:30.869Z,994.78
2019-02-15T03:21:22.377Z,994.79
2019-02-15T03:22:43.268Z,994.78
2019-02-15T03:23:22.203Z,994.79
2019-02-15T03:24:22.117Z,994.75
2019-02-15T03:25:22.036Z,994.76
2019-02-15T03:26:21.952Z,994.72
2019-02-15T03:27:21.863Z,994.71
2019-02-15T03:28:42.757Z,994.70
2019-02-15T03:29:21.692Z,994.68
2019-02-15T03:30:21.611Z,994.74
2019-02-15T03:31:21.522Z,994.74
2019-02-15T03:32:21.431Z,994.73
2019-02-15T03:33:21.514Z,994.71
2019-02-15T03:34:42.242Z,994.68
2019-02-15T03:35:21.177Z,994.69
2019-02-15T03:36:21.091Z,994.69
2019-02-15T03:37:21.005Z,994.68
2019-02-15T03:38:20.918Z,994.67
2019-02-15T03:39:20.841Z,994.65
2019-02-15T03:40:41.734Z,994.65
2019-02-15T03:41:20.667Z,994.64
2019-02-15T03:42:20.586Z,994.62
2019-02-15T03:43:20.491Z,994.61
2019-02-15T03:44:22.439Z,994.62
2019-02-15T03:45:20.322Z,994.58
2019-02-15T03:46:41.213Z,994.58
2019-02-15T03:47:20.162Z,994.58
2019-02-15T03:48:20.061Z,994.54
2019-02-15T03:49:19.985Z,994.55
2019-02-15T03:50:19.889Z,994.56
2019-02-15T03:51:19.800Z,994.54
2019-02-15T03:52:40.694Z,994.56
2019-02-15T03:53:19.633Z,994.57
2019-02-15T03:54:19.544Z,994.55
2019-02-15T03:55:19.512Z,994.56
2019-02-15T03:56:19.376Z,994.53
2019-02-15T03:57:19.292Z,994.50
2019-02-15T03:58:40.182Z,994.51
2019-02-15T03:59:19.119Z,994.49
2019-02-15T04:00:19.029Z,994.49
2019-02-15T04:01:18.948Z,994.57
2019-02-15T04:02:18.870Z,994.49
2019-02-15T04:03:18.772Z,994.49
2019-02-15T04:04:39.696Z,994.47
2019-02-15T04:05:18.606Z,994.47
2019-02-15T04:06:18.515Z,994.45
2019-02-15T04:07:18.429Z,994.44
2019-02-15T04:08:18.342Z,994.42
2019-02-15T04:09:18.255Z,994.41
2019-02-15T04:10:39.154Z,994.42
2019-02-15T04:11:18.089Z,994.39
2019-02-15T04:12:17.998Z,994.40
2019-02-15T04:13:17.913Z,994.38
2019-02-15T04:14:17.827Z,994.36
2019-02-15T04:15:17.748Z,994.32
2019-02-15T04:16:38.651Z,994.35
2019-02-15T04:17:17.572Z,994.36
2019-02-15T04:18:17.491Z,994.35
2019-02-15T04:19:17.402Z,994.32
2019-02-15T04:20:17.315Z,994.33
2019-02-15T04:21:17.227Z,994.36
2019-02-15T04:22:38.144Z,994.34
2019-02-15T04:23:17.054Z,994.36
2019-02-15T04:24:16.969Z,994.40
2019-02-15T04:25:16.886Z,994.38
2019-02-15T04:26:16.801Z,994.41
2019-02-15T04:27:16.715Z,994.42
2019-02-15T04:28:37.606Z,994.46
2019-02-15T04:29:16.539Z,994.43
2019-02-15T04:30:16.457Z,994.42
2019-02-15T04:31:16.373Z,994.42
2019-02-15T04:32:16.282Z,994.43
2019-02-15T04:33:16.208Z,994.46
2019-02-15T04:34:37.099Z,994.43
2019-02-15T04:35:16.039Z,994.42
2019-02-15T04:36:15.945Z,994.40
2019-02-15T04:37:15.857Z,994.43
2019-02-15T04:38:15.789Z,994.42
2019-02-15T04:39:15.680Z,994.39
2019-02-15T04:40:36.575Z,994.39
2019-02-15T04:41:15.509Z,994.41
2019-02-15T04:42:15.429Z,994.42
2019-02-15T04:43:15.347Z,994.40
2019-02-15T04:44:15.260Z,994.45
2019-02-15T04:45:15.174Z,994.49
2019-02-15T04:46:36.066Z,994.49
2019-02-15T04:47:15.001Z,994.49
2019-02-15T04:48:14.910Z,994.51
2019-02-15T04:49:14.822Z,994.53
2019-02-15T04:50:14.748Z,994.56
2019-02-15T04:51:14.652Z,994.55
2019-02-15T04:52:35.550Z,994.58
2019-02-15T04:53:14.493Z,994.53
2019-02-15T04:54:14.396Z,994.56
2019-02-15T04:55:14.317Z,994.58
2019-02-15T04:56:14.226Z,994.60
2019-02-15T04:57:14.145Z,994.56
2019-02-15T04:58:35.039Z,994.56
2019-02-15T04:59:13.981Z,994.59
2019-02-15T05:00:13.884Z,994.58
2019-02-15T05:01:13.792Z,994.54
2019-02-15T05:02:13.704Z,994.54
2019-02-15T05:03:13.622Z,994.51
2019-02-15T05:04:34.514Z,994.51
2019-02-15T05:05:13.450Z,994.55
2019-02-15T05:06:13.362Z,994.50
2019-02-15T05:07:13.281Z,994.49
2019-02-15T05:08:13.201Z,994.49
2019-02-15T05:09:13.104Z,994.45
2019-02-15T05:10:34.009Z,994.46
2019-02-15T05:11:12.932Z,994.43
2019-02-15T05:12:12.847Z,994.43
2019-02-15T05:13:12.760Z,994.41
2019-02-15T05:14:12.682Z,994.41
2019-02-15T05:15:12.608Z,994.45
2019-02-15T05:16:33.488Z,994.44
2019-02-15T05:17:12.415Z,994.45
2019-02-15T05:18:12.357Z,994.45
2019-02-15T05:19:12.244Z,994.46
2019-02-15T05:20:12.159Z,994.50
2019-02-15T05:21:12.835Z,994.51
2019-02-15T05:22:32.963Z,994.53
2019-02-15T05:23:11.911Z,994.51
2019-02-15T05:24:11.815Z,994.53
2019-02-15T05:25:11.739Z,994.51
2019-02-15T05:26:11.643Z,994.55
2019-02-15T05:27:11.555Z,994.57
2019-02-15T05:28:32.447Z,994.59
2019-02-15T05:29:11.392Z,994.54
2019-02-15T05:30:11.320Z,994.57
2019-02-15T05:31:11.210Z,994.56
2019-02-15T05:32:11.128Z,994.55
2019-02-15T05:33:11.046Z,994.56
2019-02-15T05:34:31.943Z,994.56
2019-02-15T05:35:10.863Z,994.54
2019-02-15T05:36:10.789Z,994.53
2019-02-15T05:37:10.700Z,994.55
2019-02-15T05:38:10.610Z,994.53
2019-02-15T05:39:10.523Z,994.50
2019-02-15T05:40:31.420Z,994.51
2019-02-15T05:41:10.354Z,994.53
2019-02-15T05:42:10.271Z,994.53
2019-02-15T05:43:10.187Z,994.54
2019-02-15T05:44:10.096Z,994.54
2019-02-15T05:45:10.032Z,994.56
2019-02-15T05:46:30.900Z,994.59
2019-02-15T05:47:09.842Z,994.55
2019-02-15T05:48:09.758Z,994.55
2019-02-15T05:49:09.666Z,994.57
2019-02-15T05:50:09.579Z,994.54
2019-02-15T05:51:09.497Z,994.54
2019-02-15T05:52:30.402Z,994.56
2019-02-15T05:53:09.317Z,994.47
2019-02-15T05:54:09.235Z,994.52
2019-02-15T05:55:09.150Z,994.49
2019-02-15T05:56:09.060Z,994.54
2019-02-15T05:57:09.667Z,994.49
2019-02-15T05:58:29.873Z,994.52
2019-02-15T05:59:08.803Z,994.51
2019-02-15T06:00:08.714Z,994.51
2019-02-15T06:01:08.640Z,994.55
2019-02-15T06:02:08.547Z,994.53
2019-02-15T06:03:08.468Z,994.49
2019-02-15T06:04:29.345Z,994.50
2019-02-15T06:05:08.291Z,994.51
2019-02-15T06:06:08.207Z,994.51
2019-02-15T06:07:08.121Z,994.48
2019-02-15T06:08:08.036Z,994.46
2019-02-15T06:09:07.947Z,994.46
2019-02-15T06:10:28.832Z,994.46
2019-02-15T06:11:08.357Z,994.45
2019-02-15T06:12:07.681Z,994.48
2019-02-15T06:13:07.598Z,994.50
2019-02-15T06:14:07.511Z,994.51
2019-02-15T06:15:14.705Z,994.53
2019-02-15T06:16:28.313Z,994.52
2019-02-15T06:17:07.252Z,994.50
2019-02-15T06:18:07.175Z,994.52
2019-02-15T06:19:07.103Z,994.49
2019-02-15T06:20:06.990Z,994.59
2019-02-15T06:21:06.908Z,994.55
2019-02-15T06:22:27.798Z,994.58
2019-02-15T06:23:06.735Z,994.60
2019-02-15T06:24:06.648Z,994.58
2019-02-15T06:25:06.611Z,994.59
2019-02-15T06:26:06.474Z,994.56
2019-02-15T06:27:06.391Z,994.61
2019-02-15T06:28:27.285Z,994.57
2019-02-15T06:29:06.218Z,994.61
2019-02-15T06:30:06.132Z,994.62
2019-02-15T06:31:06.053Z,994.62
2019-02-15T06:32:05.961Z,994.62
2019-02-15T06:33:05.875Z,994.60
2019-02-15T06:34:26.762Z,994.62
2019-02-15T06:35:05.700Z,994.66
2019-02-15T06:36:05.616Z,994.63
2019-02-15T06:37:05.529Z,994.66
2019-02-15T06:38:05.446Z,994.65
2019-02-15T06:39:05.357Z,994.69
2019-02-15T06:40:26.254Z,994.68
2019-02-15T06:41:05.183Z,994.72
2019-02-15T06:42:05.098Z,994.74
2019-02-15T06:43:05.011Z,994.76
2019-02-15T06:44:04.930Z,994.79
2019-02-15T06:45:04.833Z,994.77
2019-02-15T06:46:25.744Z,994.81
2019-02-15T06:47:04.680Z,994.82
2019-02-15T06:48:04.579Z,994.80
2019-02-15T06:49:04.495Z,994.79
2019-02-15T06:50:04.412Z,994.78
2019-02-15T06:51:04.325Z,994.80
2019-02-15T06:52:25.218Z,994.80
2019-02-15T06:53:04.149Z,994.77
2019-02-15T06:54:04.061Z,994.78
2019-02-15T06:55:03.976Z,994.74
2019-02-15T06:56:03.887Z,994.76
2019-02-15T06:57:03.808Z,994.73
2019-02-15T06:58:24.707Z,994.72
2019-02-15T06:59:03.630Z,994.71
2019-02-15T07:00:03.545Z,994.72
2019-02-15T07:01:03.465Z,994.66
2019-02-15T07:02:03.374Z,994.72
2019-02-15T07:03:03.297Z,994.72
2019-02-15T07:04:24.238Z,994.69
2019-02-15T07:05:03.116Z,994.73
2019-02-15T07:06:03.027Z,994.73
2019-02-15T07:07:02.957Z,994.75
2019-02-15T07:08:02.853Z,994.75
2019-02-15T07:09:02.774Z,994.75
2019-02-15T07:10:23.673Z,994.74
2019-02-15T07:11:02.605Z,994.78
2019-02-15T07:12:02.507Z,994.75
2019-02-15T07:13:02.425Z,994.79
2019-02-15T07:14:02.340Z,994.74
2019-02-15T07:15:02.259Z,994.75
2019-02-15T07:16:23.142Z,994.74
2019-02-15T07:17:02.089Z,994.76
2019-02-15T07:18:02.006Z,994.79
2019-02-15T07:19:01.918Z,994.76
2019-02-15T07:20:01.835Z,994.77
2019-02-15T07:21:01.738Z,994.81
2019-02-15T07:22:22.628Z,994.81
2019-02-15T07:23:01.571Z,994.82
2019-02-15T07:24:01.473Z,994.79
2019-02-15T07:25:01.392Z,994.81
2019-02-15T07:26:01.308Z,994.83
2019-02-15T07:27:01.228Z,994.81
2019-02-15T07:28:22.111Z,994.82
2019-02-15T07:29:01.048Z,994.81
2019-02-15T07:30:00.961Z,994.87
2019-02-15T07:31:00.869Z,994.89
2019-02-15T07:32:00.791Z,994.87
2019-02-15T07:33:00.702Z,994.89
2019-02-15T07:34:21.591Z,994.86
2019-02-15T07:35:00.538Z,994.90
2019-02-15T07:36:00.442Z,994.90
2019-02-15T07:37:00.359Z,994.92
2019-02-15T07:38:00.280Z,994.95
2019-02-15T07:39:00.181Z,994.95
2019-02-15T07:40:21.079Z,994.94
2019-02-15T07:41:00.014Z,994.96
2019-02-15T07:41:59.931Z,994.90
2019-02-15T07:42:59.840Z,994.94
2019-02-15T07:43:59.758Z,994.94
2019-02-15T07:44:59.674Z,994.92
2019-02-15T07:46:20.580Z,994.95
2019-02-15T07:46:59.504Z,994.95
2019-02-15T07:47:59.425Z,994.98
2019-02-15T07:48:59.331Z,994.94
2019-02-15T07:49:59.246Z,994.94
2019-02-15T07:50:59.161Z,994.97
2019-02-15T07:52:20.064Z,995.01
2019-02-15T07:52:58.987Z,994.98
2019-02-15T07:53:58.900Z,994.98
2019-02-15T07:54:58.818Z,995.02
2019-02-15T07:55:58.734Z,995.07
2019-02-15T07:56:58.646Z,995.03
2019-02-15T07:58:19.548Z,995.05
2019-02-15T07:58:58.494Z,995.04
2019-02-15T08:00:00.501Z,995.00
2019-02-15T08:00:58.429Z,995.04
2019-02-15T08:02:01.761Z,995.04
2019-02-15T08:02:58.155Z,995.04
2019-02-15T08:04:19.032Z,995.05
2019-02-15T08:04:57.971Z,995.03
2019-02-15T08:05:57.888Z,995.03
2019-02-15T08:06:57.807Z,995.06
2019-02-15T08:07:57.718Z,995.07
2019-02-15T08:08:57.630Z,995.04
2019-02-15T08:10:18.529Z,995.05
2019-02-15T08:10:57.470Z,995.07
2019-02-15T08:11:57.388Z,995.04
2019-02-15T08:12:57.299Z,995.06
2019-02-15T08:13:57.214Z,995.09
2019-02-15T08:14:57.130Z,995.07
2019-02-15T08:16:18.019Z,995.07
2019-02-15T08:16:56.952Z,995.07
2019-02-15T08:17:56.878Z,995.07
2019-02-15T08:18:56.791Z,995.10
2019-02-15T08:19:56.715Z,995.10
2019-02-15T08:20:56.624Z,995.08
2019-02-15T08:22:17.518Z,995.06
2019-02-15T08:22:56.458Z,995.08
2019-02-15T08:23:56.379Z,995.05
2019-02-15T08:24:56.287Z,995.07
2019-02-15T08:25:56.207Z,995.05
2019-02-15T08:26:56.121Z,995.08
2019-02-15T08:28:17.018Z,995.09
2019-02-15T08:28:55.949Z,995.10
2019-02-15T08:29:55.888Z,995.12
2019-02-15T08:30:55.800Z,995.10
2019-02-15T08:31:55.707Z,995.16
2019-02-15T08:32:55.638Z,995.12
2019-02-15T08:34:16.516Z,995.11
2019-02-15T08:34:55.473Z,995.14
2019-02-15T08:35:55.370Z,995.14
2019-02-15T08:36:55.285Z,995.12
2019-02-15T08:37:55.210Z,995.11
2019-02-15T08:38:55.119Z,995.11
2019-02-15T08:40:16.021Z,995.16
2019-02-15T08:40:54.983Z,995.13
2019-02-15T08:42:01.698Z,995.19
2019-02-15T08:42:55.995Z,995.20
2019-02-15T08:43:54.708Z,995.22
2019-02-15T08:44:54.633Z,995.21
2019-02-15T08:46:15.560Z,995.21
2019-02-15T08:46:54.465Z,995.26
2019-02-15T08:47:54.377Z,995.26
2019-02-15T08:48:54.296Z,995.27
2019-02-15T08:49:54.214Z,995.24
2019-02-15T08:50:54.138Z,995.22
2019-02-15T08:52:15.029Z,995.23
2019-02-15T08:52:55.193Z,995.22
2019-02-15T08:53:53.886Z,995.26
2019-02-15T08:54:53.812Z,995.24
2019-02-15T08:55:53.726Z,995.26
2019-02-15T08:56:53.647Z,995.25
2019-02-15T08:58:14.550Z,995.25
2019-02-15T08:58:53.485Z,995.27
2019-02-15T08:59:53.398Z,995.29
2019-02-15T09:00:53.314Z,995.29
2019-02-15T09:01:53.232Z,995.33
2019-02-15T09:02:53.147Z,995.33
2019-02-15T09:04:14.051Z,995.33
2019-02-15T09:04:52.988Z,995.35
2019-02-15T09:05:52.904Z,995.33
2019-02-15T09:06:52.816Z,995.33
2019-02-15T09:07:52.747Z,995.37
2019-02-15T09:08:52.663Z,995.33
2019-02-15T09:10:13.570Z,995.31
2019-02-15T09:10:52.496Z,995.33
2019-02-15T09:11:52.414Z,995.34
2019-02-15T09:12:52.339Z,995.33
2019-02-15T09:13:52.265Z,995.33
2019-02-15T09:14:52.175Z,995.31
2019-02-15T09:16:13.070Z,995.34
2019-02-15T09:16:52.010Z,995.31
2019-02-15T09:17:51.946Z,995.33
2019-02-15T09:18:51.848Z,995.29
2019-02-15T09:19:51.766Z,995.32
2019-02-15T09:20:51.686Z,995.30
2019-02-15T09:22:12.592Z,995.28
2019-02-15T09:22:51.578Z,995.27
2019-02-15T09:23:51.443Z,995.24
2019-02-15T09:24:51.365Z,995.22
2019-02-15T09:25:51.282Z,995.16
2019-02-15T09:26:51.201Z,995.20
2019-02-15T09:28:12.096Z,995.18
2019-02-15T09:28:51.045Z,995.18
2019-02-15T09:29:50.960Z,995.16
2019-02-15T09:30:50.878Z,995.19
2019-02-15T09:31:50.796Z,995.17
2019-02-15T09:32:50.720Z,995.20
2019-02-15T09:34:11.622Z,995.23
2019-02-15T09:34:50.565Z,995.19
2019-02-15T09:35:50.478Z,995.15
2019-02-15T09:36:50.401Z,995.18
2019-02-15T09:37:50.318Z,995.19
2019-02-15T09:38:50.232Z,995.16
2019-02-15T09:40:11.163Z,995.15
2019-02-15T09:40:50.075Z,995.15
2019-02-15T09:41:49.998Z,995.13
2019-02-15T09:42:49.915Z,995.12
2019-02-15T09:43:49.832Z,995.12
2019-02-15T09:44:49.760Z,995.09
2019-02-15T09:46:19.237Z,995.08
2019-02-15T09:46:49.597Z,995.07
2019-02-15T09:47:49.516Z,995.09
2019-02-15T09:48:49.441Z,995.07
2019-02-15T09:49:49.358Z,995.06
2019-02-15T09:50:49.281Z,995.05
2019-02-15T09:52:10.182Z,995.06
2019-02-15T09:52:49.121Z,995.05
2019-02-15T09:53:49.039Z,995.08
2019-02-15T09:54:48.957Z,995.03
2019-02-15T09:55:48.886Z,994.98
2019-02-15T09:56:48.803Z,994.96
2019-02-15T09:58:09.703Z,994.96
2019-02-15T09:58:48.642Z,994.95
2019-02-15T09:59:48.561Z,994.97
2019-02-15T10:00:48.563Z,994.97
2019-02-15T10:01:48.401Z,994.97
2019-02-15T10:02:48.333Z,994.92
2019-02-15T10:04:09.222Z,994.93
2019-02-15T10:04:48.163Z,994.91
2019-02-15T10:05:48.088Z,994.94
2019-02-15T10:06:48.005Z,994.92
2019-02-15T10:07:48.065Z,994.91
2019-02-15T10:08:48.033Z,994.91
2019-02-15T10:10:08.755Z,994.96
2019-02-15T10:10:47.689Z,994.96
2019-02-15T10:11:47.614Z,994.95
2019-02-15T10:12:47.531Z,994.96
2019-02-15T10:13:47.453Z,994.95
2019-02-15T10:14:47.382Z,994.97
2019-02-15T10:16:08.310Z,994.92
2019-02-15T10:16:47.224Z,994.95
2019-02-15T10:17:47.143Z,994.89
2019-02-15T10:18:47.069Z,994.92
2019-02-15T10:19:46.985Z,994.93
2019-02-15T10:20:46.907Z,994.89
2019-02-15T10:22:07.813Z,994.89
2019-02-15T10:22:46.747Z,994.93
2019-02-15T10:23:46.666Z,994.90
2019-02-15T10:24:46.604Z,994.90
2019-02-15T10:25:46.510Z,994.86
2019-02-15T10:26:46.433Z,994.88
2019-02-15T10:28:07.337Z,994.87
2019-02-15T10:28:46.273Z,994.87
2019-02-15T10:29:46.205Z,994.84
2019-02-15T10:30:46.121Z,994.86
2019-02-15T10:31:46.042Z,994.83
2019-02-15T10:32:45.968Z,994.83
2019-02-15T10:34:07.904Z,994.79
2019-02-15T10:34:45.805Z,994.83
2019-02-15T10:35:45.725Z,994.82
2019-02-15T10:36:45.657Z,994.82
2019-02-15T10:37:45.584Z,994.82
2019-02-15T10:38:45.493Z,994.81
2019-02-15T10:40:06.397Z,994.83
2019-02-15T10:40:45.343Z,994.82
2019-02-15T10:41:45.264Z,994.83
2019-02-15T10:42:45.181Z,994.85
2019-02-15T10:43:45.117Z,994.83
2019-02-15T10:44:45.028Z,994.83
2019-02-15T10:46:05.928Z,994.87
2019-02-15T10:46:44.871Z,994.84
2019-02-15T10:47:44.793Z,994.85
2019-02-15T10:48:44.718Z,994.83
2019-02-15T10:49:44.638Z,994.80
2019-02-15T10:50:44.558Z,994.84
2019-02-15T10:52:05.462Z,994.83
2019-02-15T10:52:44.405Z,994.83
2019-02-15T10:53:44.326Z,994.80
2019-02-15T10:54:44.267Z,994.77
2019-02-15T10:55:44.170Z,994.78
2019-02-15T10:56:44.092Z,994.79
2019-02-15T10:58:04.999Z,994.74
2019-02-15T10:58:43.945Z,994.73
2019-02-15T10:59:43.866Z,994.73
2019-02-15T11:00:43.789Z,994.71
2019-02-15T11:01:43.705Z,994.71
2019-02-15T11:02:43.634Z,994.72
2019-02-15T11:04:04.537Z,994.70
2019-02-15T11:04:43.479Z,994.69
2019-02-15T11:05:43.404Z,994.71
2019-02-15T11:06:43.321Z,994.65
2019-02-15T11:07:43.243Z,994.67
2019-02-15T11:08:43.168Z,994.66
2019-02-15T11:10:04.072Z,994.68
2019-02-15T11:10:43.015Z,994.65
2019-02-15T11:11:42.959Z,994.69
2019-02-15T11:12:42.856Z,994.66
2019-02-15T11:13:42.780Z,994.68
2019-02-15T11:14:42.701Z,994.66
2019-02-15T11:16:03.610Z,994.66
2019-02-15T11:16:47.310Z,994.67
2019-02-15T11:17:42.474Z,994.64
2019-02-15T11:18:42.393Z,994.59
2019-02-15T11:19:42.322Z,994.61
2019-02-15T11:20:42.241Z,994.58
2019-02-15T11:22:03.149Z,994.55
2019-02-15T11:22:42.098Z,994.47
2019-02-15T11:23:42.011Z,994.45
2019-02-15T11:24:41.935Z,994.46
2019-02-15T11:25:41.856Z,994.45
2019-02-15T11:26:41.779Z,994.48
2019-02-15T11:28:02.680Z,994.45
2019-02-15T11:28:41.627Z,994.43
2019-02-15T11:29:41.547Z,994.41
2019-02-15T11:30:41.494Z,994.43
2019-02-15T11:31:41.402Z,994.39
2019-02-15T11:32:41.318Z,994.41
2019-02-15T11:34:02.248Z,994.36
2019-02-15T11:34:41.190Z,994.36
2019-02-15T11:35:41.085Z,994.38
2019-02-15T11:36:41.009Z,994.35
2019-02-15T11:37:40.933Z,994.35
2019-02-15T11:38:40.859Z,994.34
2019-02-15T11:40:01.759Z,994.37
2019-02-15T11:40:40.700Z,994.30
2019-02-15T11:41:40.640Z,994.32
2019-02-15T11:42:40.551Z,994.30
2019-02-15T11:43:40.475Z,994.29
2019-02-15T11:44:40.461Z,994.26
2019-02-15T11:46:01.305Z,994.22
2019-02-15T11:46:40.247Z,994.19
2019-02-15T11:47:40.172Z,994.18
2019-02-15T11:48:40.099Z,994.17
2019-02-15T11:49:40.016Z,994.16
2019-02-15T11:50:39.938Z,994.15
2019-02-15T11:52:00.845Z,994.18
2019-02-15T11:52:39.813Z,994.15
2019-02-15T11:53:39.725Z,994.14
2019-02-15T11:54:39.663Z,994.14
2019-02-15T11:55:39.563Z,994.12
2019-02-15T11:56:39.498Z,994.13
2019-02-15T11:58:00.386Z,994.09
2019-02-15T11:58:39.334Z,994.11
2019-02-15T11:59:39.253Z,994.06
2019-02-15T12:00:39.174Z,994.08
2019-02-15T12:01:39.119Z,994.04
2019-02-15T12:02:39.022Z,994.05
2019-02-15T12:03:59.932Z,994.05
2019-02-15T12:04:38.898Z,994.03
2019-02-15T12:05:38.795Z,994.03
2019-02-15T12:06:38.715Z,994.01
2019-02-15T12:07:38.880Z,993.99
2019-02-15T12:08:38.564Z,993.95
2019-02-15T12:09:59.471Z,993.92
2019-02-15T12:10:38.417Z,993.92
2019-02-15T12:11:38.336Z,993.92
2019-02-15T12:12:38.270Z,993.86
2019-02-15T12:13:38.194Z,993.85
2019-02-15T12:14:38.116Z,993.85
2019-02-15T12:15:59.020Z,993.83
2019-02-15T12:16:38.651Z,993.83
2019-02-15T12:17:37.882Z,993.80
2019-02-15T12:18:37.835Z,993.78
2019-02-15T12:19:37.741Z,993.77
2019-02-15T12:20:37.660Z,993.75
2019-02-15T12:21:58.560Z,993.77
2019-02-15T12:22:37.504Z,993.75
2019-02-15T12:23:37.436Z,993.73
2019-02-15T12:24:37.379Z,993.71
2019-02-15T12:25:37.276Z,993.71
2019-02-15T12:26:37.217Z,993.70
2019-02-15T12:27:58.104Z,993.65